• Join FlightAware (Why Join?)
  • Login
  • US Flag 
05:38AM EDT


 

Airport Tracker/Info


-or-


 

Live Flight TrackerFlight Track Log ✈ DAL6055 ✈ 15-Apr-2013 ✈ KSDF - KDTW

Flight Track Log - Related Links

Times and Time Zones

All times are in EDT time to prevent confusion due to time zone crossing. See the DAL6055 flight status page for this flight to view local times or setup timezone preferences in your user account.

Time Position Orientation Groundspeed Altitude Reporting Facility
EDT Latitude Longitude Course Direction KTS MPH feet Rate Location/Type
11:47AM 38.1506 -85.7192 164° South 158 182 1,500  Level FAA TRACON SMA TRACON (SMA)
11:47AM 38.1369 -85.7142 164° South 163 188 2,300 2,400 Climbing FAA TRACON SMA TRACON (SMA)
11:47AM 38.1194 -85.7083 165° South 170 196 3,100 2,160 Climbing FAA TRACON SMA TRACON (SMA)
11:48AM 38.1047 -85.7036 166° South 176 203 3,800 1,920 Climbing FAA TRACON SMA TRACON (SMA)
11:48AM 38.0892 -85.7089 195° South 188 216 4,400 1,680 Climbing FAA TRACON SMA TRACON (SMA)
11:48AM 38.0775 -85.7242 226° Southwest 200 230 4,900 1,620 Climbing FAA TRACON SMA TRACON (SMA)
11:49AM 38.0711 -85.7519 254° West 213 245 5,500 1,620 Climbing FAA TRACON SMA TRACON (SMA)
11:49AM 38.0667 -85.7764 257° West 228 262 6,000 1,560 Climbing FAA TRACON SMA TRACON (SMA)
11:50AM 38.0686 -85.8172 273° West 250 288 6,800 2,040 Climbing FAA TRACON SMA TRACON (SMA)
11:50AM 38.0817 -85.8489 298° West 270 311 7,700 2,640 Climbing FAA TRACON SMA TRACON (SMA)
11:50AM 38.1203 -85.8667 340° North 284 327 9,100 2,520 Climbing FAA TRACON SMA TRACON (SMA)
11:51AM 38.1442 -85.8731 348° North 285 328 9,900 2,280 Climbing FAA TRACON SMA TRACON (SMA)
11:51AM 38.1686 -85.8792 349° North 288 331 10,600 1,800 Climbing FAA TRACON SMA TRACON (SMA)
11:51AM 38.1939 -85.8853 349° North 295 339 11,100 1,800 Climbing FAA TRACON SMA TRACON (SMA)
11:52AM 38.2258 -85.8922 350° North 304 350 11,800 1,620 Climbing FAA TRACON SMA TRACON (SMA)
11:52AM 38.2522 -85.8983 350° North 311 358 12,200 1,200 Climbing FAA TRACON SMA TRACON (SMA)
11:53AM 38.2792 -85.9033 352° North 316 364 12,700 1,500 Climbing FAA TRACON SMA TRACON (SMA)
11:53AM 38.3131 -85.9106 351° North 321 369 13,300 1,740 Climbing FAA TRACON SMA TRACON (SMA)
11:53AM 38.3408 -85.9164 351° North 326 375 13,800 1,500 Climbing FAA TRACON SMA TRACON (SMA)
11:53AM 38.3689 -85.9231 349° North 329 379 14,200 1,320 Climbing FAA TRACON SMA TRACON (SMA)
11:54AM 38.4042 -85.9303 351° North 336 387 14,700 1,320 Climbing FAA TRACON SMA TRACON (SMA)
11:54AM 38.4331 -85.9369 350° North 341 392 15,100 1,140 Climbing FAA TRACON SMA TRACON (SMA)
11:54AM 38.4622 -85.9433 350° North 345 397 15,500 1,020 Climbing FAA TRACON SMA TRACON (SMA)
11:55AM 38.4994 -85.9517 350° North 352 405 15,800 600 Climbing FAA TRACON SMA TRACON (SMA)
11:55AM 38.5303 -85.9578 351° North 359 413 15,900 300 Climbing FAA TRACON SMA TRACON (SMA)
11:55AM 38.5617 -85.9653 349° North 370 426 16,000 120 Climbing FAA TRACON SMA TRACON (SMA)
11:56AM 38.5942 -85.9722 351° North 381 438 16,000 540 Level FAA TRACON SMA TRACON (SMA)
11:56AM 38.6353 -85.9822 349° North 389 448 16,400 1,320 Climbing FAA TRACON SMA TRACON (SMA)
11:56AM 38.6678 -85.9892 351° North 387 445 16,900 1,380 Climbing FAA TRACON SMA TRACON (SMA)
11:57AM 38.7089 -85.9975 351° North 388 447 17,400 1,500 Climbing FAA TRACON SMA TRACON (SMA)
11:57AM 38.7503 -85.9975 360° North 389 448 18,000 1,440 Climbing FAA TRACON SMA TRACON (SMA)
11:57AM 38.7747 -85.9897 14° North 391 450 18,300 1,380 Climbing FAA TRACON SMA TRACON (SMA)
11:58AM 38.8119 -85.9647 28° Northeast 396 456 18,900 1,620 Climbing FAA TRACON SMA TRACON (SMA)
11:58AM 38.8369 -85.9344 43° Northeast 402 463 19,400 1,380 Climbing FAA TRACON SMA TRACON (SMA)
11:58AM 38.8617 -85.9036 44° Northeast 403 464 19,800 960 Climbing FAA TRACON SMA TRACON (SMA)
11:59AM 38.8708 -85.8878 53° Northeast 398 458 20,000 1,260 Climbing Indianapolis Center
12:00PM 38.9517 -85.7856 45° Northeast 405 466 21,500 1,440 Climbing Indianapolis Center
12:01PM 39.0336 -85.6822 44° Northeast 410 472 23,000 1,560 Climbing Indianapolis Center
12:02PM 39.1311 -85.5567 45° Northeast 412 474 24,800 1,440 Climbing Indianapolis Center
12:03PM 39.2019 -85.4656 45° Northeast 410 472 26,000 1,020 Climbing Indianapolis Center
12:04PM 39.2975 -85.3417 45° Northeast 414 476 27,000 480 Climbing Indianapolis Center
12:05PM 39.3844 -85.2292 45° Northeast 434 499 27,000  Level Indianapolis Center
12:06PM 39.4761 -85.1108 45° Northeast 458 527 27,000  Level Indianapolis Center
12:07PM 39.5672 -84.9906 45° Northeast 462 532 27,000  Level Indianapolis Center
12:08PM 39.6581 -84.8711 45° Northeast 461 531 27,000  Level Indianapolis Center
12:09PM 39.7589 -84.7692 38° Northeast 456 525 27,000  Level Indianapolis Center
12:10PM 39.8786 -84.7239 16° North 441 507 27,000  Level Indianapolis Center
12:11PM 39.9972 -84.6822 15° North 438 504 27,000  Level Indianapolis Center
12:12PM 40.1156 -84.6397 15° North 437 503 27,000  Level Indianapolis Center
12:13PM 40.2344 -84.5986 15° North 436 502 27,000  Level Indianapolis Center
12:14PM 40.3522 -84.5553 16° North 434 499 27,000 -360 Level Indianapolis Center
12:15PM 40.4706 -84.5139 15° North 434 499 26,300 -1,680 Descending Indianapolis Center
12:16PM 40.6103 -84.4633 15° North 440 506 23,600 -1,620 Descending Indianapolis Center
12:17PM 40.7325 -84.4200 15° North 447 514 23,000 -300 Descending Indianapolis Center
12:18PM 40.8569 -84.4192 360° North 442 509 23,000  Level Indianapolis Center
12:19PM 40.9406 -84.4236 358° North 438 504 23,000 -840 Level Cleveland Center
12:20PM 41.0614 -84.4250 360° North 438 504 21,700 -1,440 Descending Cleveland Center
12:21PM 41.1761 -84.4292 358° North 433 498 20,200 -1,500 Descending Cleveland Center
12:22PM 41.2842 -84.4383 356° North 409 471 18,700 -1,500 Descending Cleveland Center
12:23PM 41.3914 -84.4694 348° North 395 455 17,200 -1,500 Descending Cleveland Center
12:24PM 41.4969 -84.4981 349° North 390 449 15,700 -1,440 Descending Cleveland Center
12:25PM 41.5958 -84.5292 347° North 379 436 14,300 -1,200 Descending Cleveland Center
12:26PM 41.6908 -84.5600 346° North 359 413 13,300 -660 Descending Cleveland Center
12:27PM 41.7839 -84.5797 351° North 346 398 13,000 -240 Descending Cleveland Center
12:28PM 41.8336 -84.4656 60° Northeast 357 411 12,800 -540 Descending Cleveland Center
12:29PM 41.8353 -84.3542 89° East 257 296 12,000 -480 Descending Cleveland Center
12:30PM 41.8289 -84.2339 94° East 305 351 12,000  Level Cleveland Center
12:31PM 41.8244 -84.1056 93° East 330 380 12,000  Level Cleveland Center
12:32PM 41.8572 -83.9847 70° East 330 380 12,000  Level Cleveland Center
12:33PM 41.9286 -83.8964 43° Northeast 319 367 12,000  Level Cleveland Center
12:34PM 42.0064 -83.8081 40° Northeast 334 384 12,000  Level Cleveland Center
12:34PM 42.0300 -83.7842 37° Northeast 358 412 12,000  Level Cleveland Center
12:35PM 42.0797 -83.7222 43° Northeast 345 397 12,000  Level Cleveland Center
12:35PM 42.1117 -83.6931 34° Northeast 360 414 12,000 -120 Level Cleveland Center
12:36PM 42.1547 -83.6392 43° Northeast 355 409 11,900  Descending Cleveland Center
12:36PM 42.1847 -83.6069 39° Northeast 271 312 12,000  Climbing Cleveland Center
12:37PM 42.2194 -83.5608 45° Northeast 307 353 11,900 -540 Descending Cleveland Center
12:37PM 42.2450 -83.5369 35° Northeast 266 306 11,500 -1,500 Descending Cleveland Center
12:38PM 42.2856 -83.5022 32° Northeast 276 318 10,400 -1,620 Descending Cleveland Center
12:38PM 42.3153 -83.4839 25° Northeast 268 308 9,900 -1,620 Descending Cleveland Center
12:39PM 42.3767 -83.4389 28° Northeast 245 282 8,100 -1,800 Descending Cleveland Center
12:40PM 42.4403 -83.4025 23° Northeast 249 287 6,300 -1,620 Descending Cleveland Center
12:41PM 42.4953 -83.3683 25° Northeast 238 274 5,000 -1,200 Descending Cleveland Center
12:42PM 42.4781 -83.3056 110° East 181 208 4,000 -1,020 Descending Cleveland Center